sensor_id;sensor_type;location;lat;lon;timestamp;P1;durP1;ratioP1;P2;durP2;ratioP2
39218;SDS011;24934;52.752;6.964;2022-07-29T00:00:14;5.30;;;5.00;;
39218;SDS011;24934;52.752;6.964;2022-07-29T00:02:40;4.40;;;4.20;;
39218;SDS011;24934;52.752;6.964;2022-07-29T00:05:05;6.10;;;4.95;;
39218;SDS011;24934;52.752;6.964;2022-07-29T00:07:33;4.50;;;4.30;;
39218;SDS011;24934;52.752;6.964;2022-07-29T00:09:59;4.55;;;4.35;;
39218;SDS011;24934;52.752;6.964;2022-07-29T00:12:29;5.22;;;4.82;;
39218;SDS011;24934;52.752;6.964;2022-07-29T00:14:56;4.95;;;4.70;;
39218;SDS011;24934;52.752;6.964;2022-07-29T00:17:22;4.45;;;4.25;;
39218;SDS011;24934;52.752;6.964;2022-07-29T00:19:48;5.90;;;5.47;;
39218;SDS011;24934;52.752;6.964;2022-07-29T00:22:17;4.60;;;4.40;;
39218;SDS011;24934;52.752;6.964;2022-07-29T00:24:43;4.68;;;4.47;;
39218;SDS011;24934;52.752;6.964;2022-07-29T00:27:08;4.25;;;4.05;;
39218;SDS011;24934;52.752;6.964;2022-07-29T00:29:34;5.07;;;4.78;;
39218;SDS011;24934;52.752;6.964;2022-07-29T00:31:59;5.00;;;4.65;;
39218;SDS011;24934;52.752;6.964;2022-07-29T00:34:25;5.03;;;4.72;;
39218;SDS011;24934;52.752;6.964;2022-07-29T00:37:09;4.30;;;4.07;;
39218;SDS011;24934;52.752;6.964;2022-07-29T00:39:38;5.70;;;5.20;;
39218;SDS011;24934;52.752;6.964;2022-07-29T00:42:04;4.45;;;4.25;;
39218;SDS011;24934;52.752;6.964;2022-07-29T00:44:29;5.25;;;4.95;;
39218;SDS011;24934;52.752;6.964;2022-07-29T00:46:55;5.10;;;4.80;;
39218;SDS011;24934;52.752;6.964;2022-07-29T00:49:21;4.65;;;4.45;;
39218;SDS011;24934;52.752;6.964;2022-07-29T00:51:46;4.40;;;4.20;;
39218;SDS011;24934;52.752;6.964;2022-07-29T00:54:13;4.55;;;4.25;;
39218;SDS011;24934;52.752;6.964;2022-07-29T00:56:39;4.85;;;4.55;;
39218;SDS011;24934;52.752;6.964;2022-07-29T00:59:05;4.30;;;4.10;;
39218;SDS011;24934;52.752;6.964;2022-07-29T01:01:31;5.30;;;4.80;;
39218;SDS011;24934;52.752;6.964;2022-07-29T01:03:56;8.10;;;4.50;;
39218;SDS011;24934;52.752;6.964;2022-07-29T01:06:22;6.00;;;4.85;;
39218;SDS011;24934;52.752;6.964;2022-07-29T01:08:50;5.05;;;4.75;;
39218;SDS011;24934;52.752;6.964;2022-07-29T01:11:16;5.22;;;4.78;;
39218;SDS011;24934;52.752;6.964;2022-07-29T01:13:43;5.43;;;5.13;;
39218;SDS011;24934;52.752;6.964;2022-07-29T01:16:13;4.30;;;4.10;;
39218;SDS011;24934;52.752;6.964;2022-07-29T01:18:46;4.10;;;3.90;;
39218;SDS011;24934;52.752;6.964;2022-07-29T01:29:17;5.28;;;4.15;;
39218;SDS011;24934;52.752;6.964;2022-07-29T01:32:07;4.78;;;4.47;;
39218;SDS011;24934;52.752;6.964;2022-07-29T01:34:42;15.45;;;5.25;;
39218;SDS011;24934;52.752;6.964;2022-07-29T01:37:21;4.68;;;4.47;;
39218;SDS011;24934;52.752;6.964;2022-07-29T01:40:24;4.70;;;4.50;;
39218;SDS011;24934;52.752;6.964;2022-07-29T01:42:57;5.00;;;4.70;;
39218;SDS011;24934;52.752;6.964;2022-07-29T01:45:28;4.95;;;4.68;;
39218;SDS011;24934;52.752;6.964;2022-07-29T01:50:34;4.70;;;4.50;;
39218;SDS011;24934;52.752;6.964;2022-07-29T01:53:07;5.07;;;4.78;;
39218;SDS011;24934;52.752;6.964;2022-07-29T01:55:38;5.38;;;5.07;;
39218;SDS011;24934;52.752;6.964;2022-07-29T01:58:07;5.22;;;4.90;;
39218;SDS011;24934;52.752;6.964;2022-07-29T02:00:34;4.93;;;4.63;;
39218;SDS011;24934;52.752;6.964;2022-07-29T02:03:02;5.20;;;4.90;;
39218;SDS011;24934;52.752;6.964;2022-07-29T02:05:31;5.28;;;4.97;;
39218;SDS011;24934;52.752;6.964;2022-07-29T02:07:59;4.22;;;4.03;;
39218;SDS011;24934;52.752;6.964;2022-07-29T02:10:29;4.88;;;4.57;;
39218;SDS011;24934;52.752;6.964;2022-07-29T02:13:00;4.30;;;4.10;;
39218;SDS011;24934;52.752;6.964;2022-07-29T02:15:29;4.57;;;4.38;;
39218;SDS011;24934;52.752;6.964;2022-07-29T02:18:01;4.97;;;4.68;;
39218;SDS011;24934;52.752;6.964;2022-07-29T02:20:31;5.43;;;5.07;;
39218;SDS011;24934;52.752;6.964;2022-07-29T02:22:57;5.55;;;5.15;;
39218;SDS011;24934;52.752;6.964;2022-07-29T02:25:27;4.50;;;4.30;;
39218;SDS011;24934;52.752;6.964;2022-07-29T02:27:54;4.65;;;4.45;;
39218;SDS011;24934;52.752;6.964;2022-07-29T02:30:21;4.65;;;4.43;;
39218;SDS011;24934;52.752;6.964;2022-07-29T02:32:48;4.65;;;4.40;;
39218;SDS011;24934;52.752;6.964;2022-07-29T02:35:15;4.25;;;4.05;;
39218;SDS011;24934;52.752;6.964;2022-07-29T02:37:43;4.70;;;4.50;;
39218;SDS011;24934;52.752;6.964;2022-07-29T02:40:32;5.32;;;4.93;;
39218;SDS011;24934;52.752;6.964;2022-07-29T02:43:01;4.50;;;4.30;;
39218;SDS011;24934;52.752;6.964;2022-07-29T02:45:30;4.50;;;4.30;;
39218;SDS011;24934;52.752;6.964;2022-07-29T02:47:57;5.85;;;5.35;;
39218;SDS011;24934;52.752;6.964;2022-07-29T02:50:33;4.90;;;4.50;;
39218;SDS011;24934;52.752;6.964;2022-07-29T02:53:05;4.82;;;4.60;;
39218;SDS011;24934;52.752;6.964;2022-07-29T02:56:10;5.47;;;5.00;;
39218;SDS011;24934;52.752;6.964;2022-07-29T02:58:40;4.90;;;4.60;;
39218;SDS011;24934;52.752;6.964;2022-07-29T03:01:17;5.18;;;4.88;;
39218;SDS011;24934;52.752;6.964;2022-07-29T03:03:46;4.55;;;4.35;;
39218;SDS011;24934;52.752;6.964;2022-07-29T03:06:16;4.60;;;4.40;;
39218;SDS011;24934;52.752;6.964;2022-07-29T03:08:43;4.80;;;4.53;;
39218;SDS011;24934;52.752;6.964;2022-07-29T03:11:10;4.75;;;4.53;;
39218;SDS011;24934;52.752;6.964;2022-07-29T03:13:37;4.60;;;4.40;;
39218;SDS011;24934;52.752;6.964;2022-07-29T03:16:04;5.00;;;4.70;;
39218;SDS011;24934;52.752;6.964;2022-07-29T03:18:31;4.80;;;4.55;;
39218;SDS011;24934;52.752;6.964;2022-07-29T03:21:00;4.65;;;4.40;;
39218;SDS011;24934;52.752;6.964;2022-07-29T03:23:26;4.43;;;4.22;;
39218;SDS011;24934;52.752;6.964;2022-07-29T03:25:55;5.15;;;4.85;;
39218;SDS011;24934;52.752;6.964;2022-07-29T03:28:21;4.80;;;4.50;;
39218;SDS011;24934;52.752;6.964;2022-07-29T03:30:47;5.65;;;5.18;;
39218;SDS011;24934;52.752;6.964;2022-07-29T03:33:17;4.50;;;4.30;;
39218;SDS011;24934;52.752;6.964;2022-07-29T03:35:42;5.80;;;5.28;;
39218;SDS011;24934;52.752;6.964;2022-07-29T03:38:08;6.20;;;5.60;;
39218;SDS011;24934;52.752;6.964;2022-07-29T03:40:56;4.63;;;4.43;;
39218;SDS011;24934;52.752;6.964;2022-07-29T03:43:26;4.60;;;4.40;;
39218;SDS011;24934;52.752;6.964;2022-07-29T03:45:59;5.05;;;4.75;;
39218;SDS011;24934;52.752;6.964;2022-07-29T03:48:27;4.30;;;4.10;;
39218;SDS011;24934;52.752;6.964;2022-07-29T03:50:55;4.60;;;4.25;;
39218;SDS011;24934;52.752;6.964;2022-07-29T03:53:21;4.93;;;4.47;;
39218;SDS011;24934;52.752;6.964;2022-07-29T03:55:48;4.43;;;4.22;;
39218;SDS011;24934;52.752;6.964;2022-07-29T03:58:18;4.00;;;3.80;;
39218;SDS011;24934;52.752;6.964;2022-07-29T04:00:44;4.45;;;4.25;;
39218;SDS011;24934;52.752;6.964;2022-07-29T04:03:12;4.15;;;3.95;;
39218;SDS011;24934;52.752;6.964;2022-07-29T04:05:38;5.07;;;4.78;;
39218;SDS011;24934;52.752;6.964;2022-07-29T04:08:06;5.13;;;4.82;;
39218;SDS011;24934;52.752;6.964;2022-07-29T04:10:32;5.28;;;4.97;;
39218;SDS011;24934;52.752;6.964;2022-07-29T04:12:58;5.00;;;4.70;;
39218;SDS011;24934;52.752;6.964;2022-07-29T04:15:24;4.72;;;4.53;;
39218;SDS011;24934;52.752;6.964;2022-07-29T04:17:50;4.32;;;4.13;;
39218;SDS011;24934;52.752;6.964;2022-07-29T04:20:15;10.60;;;4.60;;
39218;SDS011;24934;52.752;6.964;2022-07-29T04:22:41;4.40;;;4.20;;
39218;SDS011;24934;52.752;6.964;2022-07-29T04:25:07;9.52;;;4.60;;
39218;SDS011;24934;52.752;6.964;2022-07-29T04:27:33;4.35;;;4.15;;
39218;SDS011;24934;52.752;6.964;2022-07-29T04:29:58;4.55;;;4.35;;
39218;SDS011;24934;52.752;6.964;2022-07-29T04:32:24;4.65;;;4.45;;
39218;SDS011;24934;52.752;6.964;2022-07-29T04:34:51;4.85;;;4.55;;
39218;SDS011;24934;52.752;6.964;2022-07-29T04:37:16;4.40;;;4.20;;
39218;SDS011;24934;52.752;6.964;2022-07-29T04:39:42;4.93;;;4.63;;
39218;SDS011;24934;52.752;6.964;2022-07-29T04:42:07;7.70;;;4.03;;
39218;SDS011;24934;52.752;6.964;2022-07-29T04:44:33;4.30;;;4.10;;
39218;SDS011;24934;52.752;6.964;2022-07-29T04:46:58;5.13;;;4.82;;
39218;SDS011;24934;52.752;6.964;2022-07-29T04:49:25;5.20;;;4.90;;
39218;SDS011;24934;52.752;6.964;2022-07-29T04:51:50;4.85;;;4.65;;
39218;SDS011;24934;52.752;6.964;2022-07-29T04:54:16;5.18;;;4.78;;
39218;SDS011;24934;52.752;6.964;2022-07-29T04:56:42;5.45;;;5.15;;
39218;SDS011;24934;52.752;6.964;2022-07-29T04:59:10;4.82;;;4.53;;
39218;SDS011;24934;52.752;6.964;2022-07-29T05:01:35;4.53;;;4.32;;
39218;SDS011;24934;52.752;6.964;2022-07-29T05:04:07;4.63;;;4.43;;
39218;SDS011;24934;52.752;6.964;2022-07-29T05:06:32;4.95;;;4.65;;
39218;SDS011;24934;52.752;6.964;2022-07-29T05:08:58;4.30;;;4.10;;
39218;SDS011;24934;52.752;6.964;2022-07-29T05:11:26;4.40;;;4.20;;
39218;SDS011;24934;52.752;6.964;2022-07-29T05:13:52;5.13;;;4.82;;
39218;SDS011;24934;52.752;6.964;2022-07-29T05:16:18;4.70;;;4.50;;
39218;SDS011;24934;52.752;6.964;2022-07-29T05:18:43;4.32;;;4.13;;
39218;SDS011;24934;52.752;6.964;2022-07-29T05:21:11;4.45;;;4.25;;
39218;SDS011;24934;52.752;6.964;2022-07-29T05:23:36;4.00;;;3.80;;
39218;SDS011;24934;52.752;6.964;2022-07-29T05:26:02;4.32;;;4.03;;
39218;SDS011;24934;52.752;6.964;2022-07-29T05:28:28;4.65;;;4.35;;
39218;SDS011;24934;52.752;6.964;2022-07-29T05:30:53;3.95;;;3.75;;
39218;SDS011;24934;52.752;6.964;2022-07-29T05:33:19;3.80;;;3.60;;
39218;SDS011;24934;52.752;6.964;2022-07-29T05:35:44;4.32;;;4.13;;
39218;SDS011;24934;52.752;6.964;2022-07-29T05:38:10;4.10;;;3.90;;
39218;SDS011;24934;52.752;6.964;2022-07-29T05:40:36;4.47;;;4.13;;
39218;SDS011;24934;52.752;6.964;2022-07-29T05:43:01;4.30;;;4.10;;
39218;SDS011;24934;52.752;6.964;2022-07-29T05:45:27;4.15;;;3.92;;
39218;SDS011;24934;52.752;6.964;2022-07-29T05:47:53;4.00;;;3.80;;
39218;SDS011;24934;52.752;6.964;2022-07-29T05:50:21;4.32;;;4.13;;
39218;SDS011;24934;52.752;6.964;2022-07-29T05:52:47;4.85;;;4.55;;
39218;SDS011;24934;52.752;6.964;2022-07-29T05:55:18;6.32;;;4.47;;
39218;SDS011;24934;52.752;6.964;2022-07-29T05:57:44;4.90;;;4.60;;
39218;SDS011;24934;52.752;6.964;2022-07-29T06:00:10;4.70;;;4.50;;
39218;SDS011;24934;52.752;6.964;2022-07-29T06:02:36;4.90;;;4.60;;
39218;SDS011;24934;52.752;6.964;2022-07-29T06:05:02;3.92;;;3.72;;
39218;SDS011;24934;52.752;6.964;2022-07-29T06:07:27;4.32;;;4.13;;
39218;SDS011;24934;52.752;6.964;2022-07-29T06:09:53;3.65;;;3.45;;
39218;SDS011;24934;52.752;6.964;2022-07-29T06:12:18;3.92;;;3.72;;
39218;SDS011;24934;52.752;6.964;2022-07-29T06:14:44;5.13;;;4.82;;
39218;SDS011;24934;52.752;6.964;2022-07-29T06:17:10;4.93;;;4.70;;
39218;SDS011;24934;52.752;6.964;2022-07-29T06:19:36;5.03;;;4.72;;
39218;SDS011;24934;52.752;6.964;2022-07-29T06:22:05;5.10;;;4.80;;
39218;SDS011;24934;52.752;6.964;2022-07-29T06:24:30;3.83;;;3.63;;
39218;SDS011;24934;52.752;6.964;2022-07-29T06:26:56;3.85;;;3.65;;
39218;SDS011;24934;52.752;6.964;2022-07-29T06:29:24;4.35;;;4.15;;
39218;SDS011;24934;52.752;6.964;2022-07-29T06:31:50;4.25;;;4.05;;
39218;SDS011;24934;52.752;6.964;2022-07-29T06:34:16;4.72;;;4.43;;
39218;SDS011;24934;52.752;6.964;2022-07-29T06:36:41;4.50;;;4.25;;
39218;SDS011;24934;52.752;6.964;2022-07-29T06:39:07;4.80;;;4.40;;
39218;SDS011;24934;52.752;6.964;2022-07-29T06:41:33;5.00;;;4.70;;
39218;SDS011;24934;52.752;6.964;2022-07-29T06:43:59;4.88;;;4.47;;
39218;SDS011;24934;52.752;6.964;2022-07-29T06:46:24;4.90;;;4.60;;
39218;SDS011;24934;52.752;6.964;2022-07-29T06:48:50;4.95;;;4.68;;
39218;SDS011;24934;52.752;6.964;2022-07-29T06:51:19;5.18;;;4.88;;
39218;SDS011;24934;52.752;6.964;2022-07-29T06:53:46;5.45;;;5.15;;
39218;SDS011;24934;52.752;6.964;2022-07-29T06:56:11;5.72;;;5.43;;
39218;SDS011;24934;52.752;6.964;2022-07-29T06:58:38;5.30;;;5.00;;
39218;SDS011;24934;52.752;6.964;2022-07-29T07:01:05;5.45;;;5.15;;
39218;SDS011;24934;52.752;6.964;2022-07-29T07:03:31;5.63;;;5.32;;
39218;SDS011;24934;52.752;6.964;2022-07-29T07:05:57;5.57;;;5.28;;
39218;SDS011;24934;52.752;6.964;2022-07-29T07:08:23;5.22;;;4.93;;
39218;SDS011;24934;52.752;6.964;2022-07-29T07:10:49;5.28;;;4.97;;
39218;SDS011;24934;52.752;6.964;2022-07-29T07:13:20;5.57;;;5.18;;
39218;SDS011;24934;52.752;6.964;2022-07-29T07:15:49;5.20;;;4.90;;
39218;SDS011;24934;52.752;6.964;2022-07-29T07:18:16;5.13;;;4.82;;
39218;SDS011;24934;52.752;6.964;2022-07-29T07:20:42;6.32;;;5.93;;
39218;SDS011;24934;52.752;6.964;2022-07-29T07:23:10;6.22;;;5.72;;
39218;SDS011;24934;52.752;6.964;2022-07-29T07:25:36;5.60;;;5.30;;
39218;SDS011;24934;52.752;6.964;2022-07-29T07:28:02;5.80;;;5.50;;
39218;SDS011;24934;52.752;6.964;2022-07-29T07:30:31;6.18;;;5.82;;
39218;SDS011;24934;52.752;6.964;2022-07-29T07:32:57;5.47;;;5.18;;
39218;SDS011;24934;52.752;6.964;2022-07-29T07:35:22;18.67;;;5.20;;
39218;SDS011;24934;52.752;6.964;2022-07-29T07:37:52;5.72;;;5.32;;
39218;SDS011;24934;52.752;6.964;2022-07-29T07:40:18;5.32;;;5.03;;
39218;SDS011;24934;52.752;6.964;2022-07-29T07:42:44;6.60;;;6.20;;
39218;SDS011;24934;52.752;6.964;2022-07-29T07:45:13;5.85;;;5.55;;
39218;SDS011;24934;52.752;6.964;2022-07-29T07:47:42;5.97;;;5.60;;
39218;SDS011;24934;52.752;6.964;2022-07-29T07:50:09;6.63;;;6.22;;
39218;SDS011;24934;52.752;6.964;2022-07-29T07:52:37;5.60;;;5.30;;
39218;SDS011;24934;52.752;6.964;2022-07-29T07:55:17;5.78;;;5.47;;
39218;SDS011;24934;52.752;6.964;2022-07-29T07:57:44;5.90;;;5.57;;
39218;SDS011;24934;52.752;6.964;2022-07-29T08:00:11;6.13;;;5.72;;
39218;SDS011;24934;52.752;6.964;2022-07-29T08:02:38;6.32;;;5.95;;
39218;SDS011;24934;52.752;6.964;2022-07-29T08:05:04;5.30;;;5.00;;
39218;SDS011;24934;52.752;6.964;2022-07-29T08:07:31;5.30;;;5.00;;
39218;SDS011;24934;52.752;6.964;2022-07-29T08:09:57;5.70;;;5.40;;
39218;SDS011;24934;52.752;6.964;2022-07-29T08:12:23;5.88;;;5.47;;
39218;SDS011;24934;52.752;6.964;2022-07-29T08:14:48;5.85;;;5.45;;
39218;SDS011;24934;52.752;6.964;2022-07-29T08:17:14;6.18;;;5.88;;
39218;SDS011;24934;52.752;6.964;2022-07-29T08:19:39;6.47;;;6.05;;
39218;SDS011;24934;52.752;6.964;2022-07-29T08:22:05;5.88;;;5.57;;
39218;SDS011;24934;52.752;6.964;2022-07-29T08:24:31;5.65;;;5.30;;
39218;SDS011;24934;52.752;6.964;2022-07-29T08:27:12;5.53;;;5.13;;
39218;SDS011;24934;52.752;6.964;2022-07-29T08:29:38;5.55;;;5.25;;
39218;SDS011;24934;52.752;6.964;2022-07-29T08:32:05;6.07;;;5.68;;
39218;SDS011;24934;52.752;6.964;2022-07-29T08:34:31;5.85;;;5.55;;
39218;SDS011;24934;52.752;6.964;2022-07-29T08:36:57;9.43;;;5.65;;
39218;SDS011;24934;52.752;6.964;2022-07-29T08:39:23;6.53;;;6.15;;
39218;SDS011;24934;52.752;6.964;2022-07-29T08:41:52;9.80;;;5.82;;
39218;SDS011;24934;52.752;6.964;2022-07-29T08:44:21;6.10;;;5.80;;
39218;SDS011;24934;52.752;6.964;2022-07-29T08:46:47;5.60;;;5.30;;
39218;SDS011;24934;52.752;6.964;2022-07-29T08:49:14;5.97;;;5.60;;
39218;SDS011;24934;52.752;6.964;2022-07-29T08:51:40;6.35;;;5.97;;
39218;SDS011;24934;52.752;6.964;2022-07-29T08:54:08;6.28;;;5.88;;
39218;SDS011;24934;52.752;6.964;2022-07-29T08:56:34;6.00;;;5.70;;
39218;SDS011;24934;52.752;6.964;2022-07-29T08:59:02;6.25;;;5.75;;
39218;SDS011;24934;52.752;6.964;2022-07-29T09:01:35;6.15;;;5.40;;
39218;SDS011;24934;52.752;6.964;2022-07-29T09:04:07;5.40;;;5.10;;
39218;SDS011;24934;52.752;6.964;2022-07-29T09:06:37;5.90;;;5.50;;
39218;SDS011;24934;52.752;6.964;2022-07-29T09:09:08;5.80;;;5.45;;
39218;SDS011;24934;52.752;6.964;2022-07-29T09:11:34;5.82;;;5.53;;
39218;SDS011;24934;52.752;6.964;2022-07-29T09:14:00;5.90;;;5.50;;
39218;SDS011;24934;52.752;6.964;2022-07-29T09:16:25;6.38;;;5.80;;
39218;SDS011;24934;52.752;6.964;2022-07-29T09:19:19;5.93;;;5.53;;
39218;SDS011;24934;52.752;6.964;2022-07-29T09:21:46;6.35;;;5.88;;
39218;SDS011;24934;52.752;6.964;2022-07-29T09:24:36;5.82;;;5.43;;
39218;SDS011;24934;52.752;6.964;2022-07-29T09:27:10;6.22;;;5.88;;
39218;SDS011;24934;52.752;6.964;2022-07-29T09:29:45;12.95;;;5.82;;
39218;SDS011;24934;52.752;6.964;2022-07-29T09:32:11;5.53;;;5.22;;
39218;SDS011;24934;52.752;6.964;2022-07-29T09:34:37;5.70;;;5.40;;
39218;SDS011;24934;52.752;6.964;2022-07-29T09:37:06;4.90;;;4.70;;
39218;SDS011;24934;52.752;6.964;2022-07-29T09:39:36;5.22;;;4.88;;
39218;SDS011;24934;52.752;6.964;2022-07-29T09:42:11;5.30;;;5.00;;
39218;SDS011;24934;52.752;6.964;2022-07-29T09:44:47;6.07;;;5.68;;
39218;SDS011;24934;52.752;6.964;2022-07-29T09:47:15;5.82;;;5.53;;
39218;SDS011;24934;52.752;6.964;2022-07-29T09:49:52;5.80;;;5.43;;
39218;SDS011;24934;52.752;6.964;2022-07-29T09:52:19;5.50;;;5.20;;
39218;SDS011;24934;52.752;6.964;2022-07-29T09:54:45;5.70;;;5.40;;
39218;SDS011;24934;52.752;6.964;2022-07-29T09:57:24;5.65;;;5.32;;
39218;SDS011;24934;52.752;6.964;2022-07-29T09:59:56;5.70;;;5.40;;
39218;SDS011;24934;52.752;6.964;2022-07-29T10:02:29;5.50;;;5.20;;
39218;SDS011;24934;52.752;6.964;2022-07-29T10:04:56;6.03;;;5.63;;
39218;SDS011;24934;52.752;6.964;2022-07-29T10:07:22;5.78;;;5.47;;
39218;SDS011;24934;52.752;6.964;2022-07-29T10:09:52;5.85;;;5.25;;
39218;SDS011;24934;52.752;6.964;2022-07-29T10:12:22;5.60;;;5.30;;
39218;SDS011;24934;52.752;6.964;2022-07-29T10:14:48;5.50;;;5.20;;
39218;SDS011;24934;52.752;6.964;2022-07-29T10:17:14;5.72;;;5.43;;
39218;SDS011;24934;52.752;6.964;2022-07-29T10:19:41;5.78;;;5.47;;
39218;SDS011;24934;52.752;6.964;2022-07-29T10:22:08;5.47;;;5.18;;
39218;SDS011;24934;52.752;6.964;2022-07-29T10:24:38;5.40;;;5.05;;
39218;SDS011;24934;52.752;6.964;2022-07-29T10:27:05;4.75;;;4.55;;
39218;SDS011;24934;52.752;6.964;2022-07-29T10:29:33;9.85;;;5.50;;
39218;SDS011;24934;52.752;6.964;2022-07-29T10:32:13;5.57;;;5.28;;
39218;SDS011;24934;52.752;6.964;2022-07-29T10:43:24;6.10;;;5.53;;
39218;SDS011;24934;52.752;6.964;2022-07-29T10:45:57;5.70;;;5.20;;
39218;SDS011;24934;52.752;6.964;2022-07-29T10:48:24;5.00;;;4.70;;
39218;SDS011;24934;52.752;6.964;2022-07-29T10:50:54;5.47;;;5.07;;
39218;SDS011;24934;52.752;6.964;2022-07-29T10:53:20;5.00;;;4.70;;
39218;SDS011;24934;52.752;6.964;2022-07-29T10:55:47;5.03;;;4.72;;
39218;SDS011;24934;52.752;6.964;2022-07-29T11:00:49;5.25;;;4.95;;
39218;SDS011;24934;52.752;6.964;2022-07-29T11:06:13;4.88;;;4.57;;
39218;SDS011;24934;52.752;6.964;2022-07-29T11:08:39;4.97;;;4.68;;
39218;SDS011;24934;52.752;6.964;2022-07-29T11:13:51;5.53;;;5.22;;
39218;SDS011;24934;52.752;6.964;2022-07-29T11:16:20;5.68;;;5.38;;
39218;SDS011;24934;52.752;6.964;2022-07-29T11:21:37;5.93;;;5.55;;
39218;SDS011;24934;52.752;6.964;2022-07-29T11:24:15;5.28;;;4.97;;
39218;SDS011;24934;52.752;6.964;2022-07-29T11:27:08;5.85;;;5.55;;
39218;SDS011;24934;52.752;6.964;2022-07-29T11:29:35;7.10;;;6.60;;
39218;SDS011;24934;52.752;6.964;2022-07-29T11:32:24;6.30;;;6.00;;
39218;SDS011;24934;52.752;6.964;2022-07-29T11:35:18;6.97;;;6.55;;
39218;SDS011;24934;52.752;6.964;2022-07-29T11:43:55;6.40;;;6.00;;
39218;SDS011;24934;52.752;6.964;2022-07-29T11:49:20;6.50;;;6.10;;
39218;SDS011;24934;52.752;6.964;2022-07-29T11:51:54;6.22;;;5.82;;
39218;SDS011;24934;52.752;6.964;2022-07-29T11:54:30;6.28;;;5.93;;
39218;SDS011;24934;52.752;6.964;2022-07-29T11:56:58;6.22;;;5.65;;
39218;SDS011;24934;52.752;6.964;2022-07-29T11:59:24;6.00;;;5.70;;
39218;SDS011;24934;52.752;6.964;2022-07-29T12:01:58;6.38;;;5.97;;
39218;SDS011;24934;52.752;6.964;2022-07-29T12:04:25;6.10;;;5.70;;
39218;SDS011;24934;52.752;6.964;2022-07-29T12:06:57;5.95;;;5.65;;
39218;SDS011;24934;52.752;6.964;2022-07-29T12:09:23;5.90;;;5.60;;
39218;SDS011;24934;52.752;6.964;2022-07-29T12:11:55;5.93;;;5.63;;
39218;SDS011;24934;52.752;6.964;2022-07-29T12:14:28;5.72;;;5.43;;
39218;SDS011;24934;52.752;6.964;2022-07-29T12:16:54;5.57;;;5.28;;
39218;SDS011;24934;52.752;6.964;2022-07-29T12:19:20;6.95;;;6.30;;
39218;SDS011;24934;52.752;6.964;2022-07-29T12:21:50;6.30;;;5.90;;
39218;SDS011;24934;52.752;6.964;2022-07-29T12:24:17;5.95;;;5.63;;
39218;SDS011;24934;52.752;6.964;2022-07-29T12:29:20;5.85;;;5.55;;
39218;SDS011;24934;52.752;6.964;2022-07-29T12:31:48;10.73;;;5.90;;
39218;SDS011;24934;52.752;6.964;2022-07-29T12:34:19;7.13;;;6.60;;
39218;SDS011;24934;52.752;6.964;2022-07-29T12:36:47;5.95;;;5.65;;
39218;SDS011;24934;52.752;6.964;2022-07-29T12:39:14;6.25;;;5.85;;
39218;SDS011;24934;52.752;6.964;2022-07-29T12:41:42;6.63;;;6.18;;
39218;SDS011;24934;52.752;6.964;2022-07-29T12:44:09;6.10;;;5.80;;
39218;SDS011;24934;52.752;6.964;2022-07-29T12:46:40;6.65;;;6.25;;
39218;SDS011;24934;52.752;6.964;2022-07-29T12:49:07;5.57;;;5.28;;
39218;SDS011;24934;52.752;6.964;2022-07-29T12:51:33;5.78;;;5.47;;
39218;SDS011;24934;52.752;6.964;2022-07-29T12:54:08;10.43;;;6.00;;
39218;SDS011;24934;52.752;6.964;2022-07-29T12:56:39;5.82;;;5.53;;
39218;SDS011;24934;52.752;6.964;2022-07-29T12:59:13;5.95;;;5.55;;
39218;SDS011;24934;52.752;6.964;2022-07-29T13:01:43;5.65;;;5.35;;
39218;SDS011;24934;52.752;6.964;2022-07-29T13:04:23;6.25;;;5.78;;
39218;SDS011;24934;52.752;6.964;2022-07-29T13:06:57;6.35;;;5.85;;
39218;SDS011;24934;52.752;6.964;2022-07-29T13:09:41;6.40;;;6.00;;
39218;SDS011;24934;52.752;6.964;2022-07-29T13:12:13;6.20;;;5.68;;
39218;SDS011;24934;52.752;6.964;2022-07-29T13:14:40;6.22;;;5.82;;
39218;SDS011;24934;52.752;6.964;2022-07-29T13:17:14;5.93;;;5.55;;
39218;SDS011;24934;52.752;6.964;2022-07-29T13:19:49;6.63;;;6.22;;
39218;SDS011;24934;52.752;6.964;2022-07-29T13:22:20;6.97;;;6.57;;
39218;SDS011;24934;52.752;6.964;2022-07-29T13:24:57;7.78;;;7.07;;
39218;SDS011;24934;52.752;6.964;2022-07-29T13:27:25;5.68;;;5.38;;
39218;SDS011;24934;52.752;6.964;2022-07-29T13:29:52;6.35;;;5.90;;
39218;SDS011;24934;52.752;6.964;2022-07-29T13:32:22;5.90;;;5.60;;
39218;SDS011;24934;52.752;6.964;2022-07-29T13:34:49;7.15;;;6.50;;
39218;SDS011;24934;52.752;6.964;2022-07-29T13:37:14;5.72;;;5.43;;
39218;SDS011;24934;52.752;6.964;2022-07-29T13:39:41;7.32;;;6.85;;
39218;SDS011;24934;52.752;6.964;2022-07-29T13:42:07;6.93;;;6.53;;
39218;SDS011;24934;52.752;6.964;2022-07-29T13:44:33;7.53;;;6.93;;
39218;SDS011;24934;52.752;6.964;2022-07-29T13:46:59;7.38;;;6.85;;
39218;SDS011;24934;52.752;6.964;2022-07-29T13:49:25;8.60;;;7.25;;
39218;SDS011;24934;52.752;6.964;2022-07-29T13:51:52;7.32;;;6.93;;
39218;SDS011;24934;52.752;6.964;2022-07-29T13:54:21;8.38;;;7.78;;
39218;SDS011;24934;52.752;6.964;2022-07-29T13:56:49;7.60;;;7.10;;
39218;SDS011;24934;52.752;6.964;2022-07-29T13:59:16;7.90;;;7.40;;
39218;SDS011;24934;52.752;6.964;2022-07-29T14:01:41;8.25;;;7.75;;
39218;SDS011;24934;52.752;6.964;2022-07-29T14:04:07;7.45;;;7.05;;
39218;SDS011;24934;52.752;6.964;2022-07-29T14:06:34;8.10;;;7.60;;
39218;SDS011;24934;52.752;6.964;2022-07-29T14:09:09;8.32;;;7.82;;
39218;SDS011;24934;52.752;6.964;2022-07-29T14:11:35;7.10;;;6.70;;
39218;SDS011;24934;52.752;6.964;2022-07-29T14:14:01;6.97;;;6.47;;
39218;SDS011;24934;52.752;6.964;2022-07-29T14:16:27;6.22;;;5.88;;
39218;SDS011;24934;52.752;6.964;2022-07-29T14:18:53;7.47;;;6.88;;
39218;SDS011;24934;52.752;6.964;2022-07-29T14:21:18;6.93;;;6.35;;
39218;SDS011;24934;52.752;6.964;2022-07-29T14:23:44;7.20;;;6.70;;
39218;SDS011;24934;52.752;6.964;2022-07-29T14:26:09;6.72;;;6.30;;
39218;SDS011;24934;52.752;6.964;2022-07-29T14:28:35;5.50;;;5.20;;
39218;SDS011;24934;52.752;6.964;2022-07-29T14:31:01;6.75;;;6.10;;
39218;SDS011;24934;52.752;6.964;2022-07-29T14:33:26;7.85;;;7.18;;
39218;SDS011;24934;52.752;6.964;2022-07-29T14:35:52;6.93;;;6.53;;
39218;SDS011;24934;52.752;6.964;2022-07-29T14:38:18;6.90;;;6.50;;
39218;SDS011;24934;52.752;6.964;2022-07-29T14:40:43;7.57;;;7.03;;
39218;SDS011;24934;52.752;6.964;2022-07-29T14:43:11;8.07;;;7.57;;
39218;SDS011;24934;52.752;6.964;2022-07-29T14:45:38;6.90;;;6.50;;
39218;SDS011;24934;52.752;6.964;2022-07-29T14:48:04;11.73;;;7.40;;
39218;SDS011;24934;52.752;6.964;2022-07-29T14:50:30;6.70;;;6.30;;
39218;SDS011;24934;52.752;6.964;2022-07-29T14:52:56;6.10;;;5.70;;
39218;SDS011;24934;52.752;6.964;2022-07-29T14:55:21;6.55;;;6.15;;
39218;SDS011;24934;52.752;6.964;2022-07-29T14:57:47;6.38;;;5.97;;
39218;SDS011;24934;52.752;6.964;2022-07-29T15:00:17;6.60;;;6.20;;
39218;SDS011;24934;52.752;6.964;2022-07-29T15:02:46;7.00;;;6.55;;
39218;SDS011;24934;52.752;6.964;2022-07-29T15:05:13;9.18;;;7.18;;
39218;SDS011;24934;52.752;6.964;2022-07-29T15:07:46;6.38;;;5.82;;
39218;SDS011;24934;52.752;6.964;2022-07-29T15:10:11;21.08;;;6.38;;
39218;SDS011;24934;52.752;6.964;2022-07-29T15:12:37;5.60;;;5.30;;
39218;SDS011;24934;52.752;6.964;2022-07-29T15:15:02;5.88;;;5.47;;
39218;SDS011;24934;52.752;6.964;2022-07-29T15:17:28;6.70;;;6.20;;
39218;SDS011;24934;52.752;6.964;2022-07-29T15:19:54;6.90;;;6.40;;
39218;SDS011;24934;52.752;6.964;2022-07-29T15:22:22;5.82;;;5.43;;
39218;SDS011;24934;52.752;6.964;2022-07-29T15:24:48;5.90;;;5.60;;
39218;SDS011;24934;52.752;6.964;2022-07-29T15:27:13;6.28;;;5.93;;
39218;SDS011;24934;52.752;6.964;2022-07-29T15:29:40;5.85;;;5.55;;
39218;SDS011;24934;52.752;6.964;2022-07-29T15:32:06;6.60;;;6.20;;
39218;SDS011;24934;52.752;6.964;2022-07-29T15:34:32;6.10;;;5.70;;
39218;SDS011;24934;52.752;6.964;2022-07-29T15:36:58;6.03;;;5.63;;